sensor_id;sensor_type;location;lat;lon;timestamp;P1;durP1;ratioP1;P2;durP2;ratioP2
25231;SDS011;13176;51.140;6.290;2024-01-30T00:02:18;31.65;;;29.48;;
25231;SDS011;13176;51.140;6.290;2024-01-30T00:04:45;33.58;;;31.27;;
25231;SDS011;13176;51.140;6.290;2024-01-30T00:07:12;30.63;;;28.70;;
25231;SDS011;13176;51.140;6.290;2024-01-30T00:09:39;31.92;;;29.88;;
25231;SDS011;13176;51.140;6.290;2024-01-30T00:12:06;31.48;;;29.33;;
25231;SDS011;13176;51.140;6.290;2024-01-30T00:14:32;29.95;;;27.77;;
25231;SDS011;13176;51.140;6.290;2024-01-30T00:16:59;31.50;;;29.23;;
25231;SDS011;13176;51.140;6.290;2024-01-30T00:19:25;32.33;;;30.23;;
25231;SDS011;13176;51.140;6.290;2024-01-30T00:21:52;31.20;;;29.05;;
25231;SDS011;13176;51.140;6.290;2024-01-30T00:24:19;29.38;;;27.33;;
25231;SDS011;13176;51.140;6.290;2024-01-30T00:26:46;30.30;;;28.17;;
25231;SDS011;13176;51.140;6.290;2024-01-30T00:29:12;30.38;;;28.08;;
25231;SDS011;13176;51.140;6.290;2024-01-30T00:31:47;29.85;;;27.63;;
25231;SDS011;13176;51.140;6.290;2024-01-30T00:34:14;30.05;;;27.83;;
25231;SDS011;13176;51.140;6.290;2024-01-30T00:36:41;31.55;;;29.45;;
25231;SDS011;13176;51.140;6.290;2024-01-30T00:39:07;30.67;;;28.50;;
25231;SDS011;13176;51.140;6.290;2024-01-30T00:41:36;32.20;;;29.60;;
25231;SDS011;13176;51.140;6.290;2024-01-30T00:44:03;28.65;;;26.77;;
25231;SDS011;13176;51.140;6.290;2024-01-30T00:46:29;29.63;;;27.63;;
25231;SDS011;13176;51.140;6.290;2024-01-30T00:48:56;30.02;;;28.00;;
25231;SDS011;13176;51.140;6.290;2024-01-30T00:51:22;28.90;;;27.00;;
25231;SDS011;13176;51.140;6.290;2024-01-30T00:53:49;28.40;;;26.33;;
25231;SDS011;13176;51.140;6.290;2024-01-30T00:56:15;28.45;;;26.45;;
25231;SDS011;13176;51.140;6.290;2024-01-30T00:58:44;29.42;;;27.45;;
25231;SDS011;13176;51.140;6.290;2024-01-30T01:01:11;29.08;;;26.90;;
25231;SDS011;13176;51.140;6.290;2024-01-30T01:03:37;29.25;;;27.05;;
25231;SDS011;13176;51.140;6.290;2024-01-30T01:06:04;29.00;;;26.80;;
25231;SDS011;13176;51.140;6.290;2024-01-30T01:08:31;29.23;;;27.30;;
25231;SDS011;13176;51.140;6.290;2024-01-30T01:10:57;27.73;;;25.95;;
25231;SDS011;13176;51.140;6.290;2024-01-30T01:13:24;29.67;;;27.48;;
25231;SDS011;13176;51.140;6.290;2024-01-30T01:15:50;27.05;;;25.23;;
25231;SDS011;13176;51.140;6.290;2024-01-30T01:18:19;27.52;;;25.48;;
25231;SDS011;13176;51.140;6.290;2024-01-30T01:20:46;28.58;;;26.55;;
25231;SDS011;13176;51.140;6.290;2024-01-30T01:23:12;28.33;;;26.33;;
25231;SDS011;13176;51.140;6.290;2024-01-30T01:25:39;29.48;;;27.48;;
25231;SDS011;13176;51.140;6.290;2024-01-30T01:28:05;28.63;;;26.38;;
25231;SDS011;13176;51.140;6.290;2024-01-30T01:30:32;28.45;;;26.40;;
25231;SDS011;13176;51.140;6.290;2024-01-30T01:32:58;30.23;;;27.83;;
25231;SDS011;13176;51.140;6.290;2024-01-30T01:35:29;28.88;;;26.77;;
25231;SDS011;13176;51.140;6.290;2024-01-30T01:37:55;26.95;;;25.17;;
25231;SDS011;13176;51.140;6.290;2024-01-30T01:40:26;27.60;;;25.70;;
25231;SDS011;13176;51.140;6.290;2024-01-30T01:42:54;27.35;;;25.35;;
25231;SDS011;13176;51.140;6.290;2024-01-30T01:45:22;27.55;;;25.55;;
25231;SDS011;13176;51.140;6.290;2024-01-30T01:47:51;28.77;;;26.73;;
25231;SDS011;13176;51.140;6.290;2024-01-30T01:50:18;28.90;;;26.88;;
25231;SDS011;13176;51.140;6.290;2024-01-30T01:52:47;29.58;;;27.63;;
25231;SDS011;13176;51.140;6.290;2024-01-30T01:55:17;31.17;;;28.88;;
25231;SDS011;13176;51.140;6.290;2024-01-30T01:57:48;26.45;;;24.45;;
25231;SDS011;13176;51.140;6.290;2024-01-30T02:00:15;27.30;;;25.50;;
25231;SDS011;13176;51.140;6.290;2024-01-30T02:02:42;28.63;;;26.35;;
25231;SDS011;13176;51.140;6.290;2024-01-30T02:05:11;26.67;;;24.95;;
25231;SDS011;13176;51.140;6.290;2024-01-30T02:07:40;27.50;;;25.65;;
25231;SDS011;13176;51.140;6.290;2024-01-30T02:10:10;28.58;;;26.60;;
25231;SDS011;13176;51.140;6.290;2024-01-30T02:12:36;28.63;;;26.55;;
25231;SDS011;13176;51.140;6.290;2024-01-30T02:15:03;26.58;;;24.38;;
25231;SDS011;13176;51.140;6.290;2024-01-30T02:17:31;27.00;;;24.98;;
25231;SDS011;13176;51.140;6.290;2024-01-30T02:19:57;28.98;;;26.77;;
25231;SDS011;13176;51.140;6.290;2024-01-30T02:22:24;26.45;;;24.55;;
25231;SDS011;13176;51.140;6.290;2024-01-30T02:24:51;27.67;;;25.52;;
25231;SDS011;13176;51.140;6.290;2024-01-30T02:27:18;26.55;;;24.67;;
25231;SDS011;13176;51.140;6.290;2024-01-30T02:29:44;25.10;;;23.40;;
25231;SDS011;13176;51.140;6.290;2024-01-30T02:32:11;27.60;;;25.70;;
25231;SDS011;13176;51.140;6.290;2024-01-30T02:34:37;28.20;;;25.80;;
25231;SDS011;13176;51.140;6.290;2024-01-30T02:37:04;26.15;;;24.20;;
25231;SDS011;13176;51.140;6.290;2024-01-30T02:39:35;27.05;;;24.98;;
25231;SDS011;13176;51.140;6.290;2024-01-30T02:42:02;26.60;;;24.73;;
25231;SDS011;13176;51.140;6.290;2024-01-30T02:44:31;26.23;;;24.38;;
25231;SDS011;13176;51.140;6.290;2024-01-30T02:46:57;25.85;;;24.15;;
25231;SDS011;13176;51.140;6.290;2024-01-30T02:49:27;27.50;;;25.40;;
25231;SDS011;13176;51.140;6.290;2024-01-30T02:51:53;28.90;;;26.80;;
25231;SDS011;13176;51.140;6.290;2024-01-30T02:54:21;29.33;;;27.17;;
25231;SDS011;13176;51.140;6.290;2024-01-30T02:56:47;28.58;;;26.42;;
25231;SDS011;13176;51.140;6.290;2024-01-30T02:59:14;27.27;;;25.45;;
25231;SDS011;13176;51.140;6.290;2024-01-30T03:01:44;28.95;;;26.85;;
25231;SDS011;13176;51.140;6.290;2024-01-30T03:04:11;28.23;;;25.85;;
25231;SDS011;13176;51.140;6.290;2024-01-30T03:06:38;27.75;;;26.02;;
25231;SDS011;13176;51.140;6.290;2024-01-30T03:09:05;29.48;;;27.20;;
25231;SDS011;13176;51.140;6.290;2024-01-30T03:11:31;27.05;;;25.13;;
25231;SDS011;13176;51.140;6.290;2024-01-30T03:13:58;26.17;;;24.35;;
25231;SDS011;13176;51.140;6.290;2024-01-30T03:16:24;27.27;;;25.27;;
25231;SDS011;13176;51.140;6.290;2024-01-30T03:18:51;26.35;;;24.52;;
25231;SDS011;13176;51.140;6.290;2024-01-30T03:21:17;25.83;;;24.08;;
25231;SDS011;13176;51.140;6.290;2024-01-30T03:23:44;26.45;;;24.38;;
25231;SDS011;13176;51.140;6.290;2024-01-30T03:26:10;28.58;;;26.27;;
25231;SDS011;13176;51.140;6.290;2024-01-30T03:28:39;27.65;;;25.48;;
25231;SDS011;13176;51.140;6.290;2024-01-30T03:31:05;26.88;;;24.92;;
25231;SDS011;13176;51.140;6.290;2024-01-30T03:33:32;25.83;;;24.23;;
25231;SDS011;13176;51.140;6.290;2024-01-30T03:36:02;26.55;;;24.75;;
25231;SDS011;13176;51.140;6.290;2024-01-30T03:38:29;27.83;;;25.73;;
25231;SDS011;13176;51.140;6.290;2024-01-30T03:40:56;26.58;;;24.67;;
25231;SDS011;13176;51.140;6.290;2024-01-30T03:43:23;28.17;;;26.20;;
25231;SDS011;13176;51.140;6.290;2024-01-30T03:45:49;25.95;;;23.95;;
25231;SDS011;13176;51.140;6.290;2024-01-30T03:48:16;25.75;;;24.00;;
25231;SDS011;13176;51.140;6.290;2024-01-30T03:50:43;27.20;;;25.45;;
25231;SDS011;13176;51.140;6.290;2024-01-30T03:53:09;27.63;;;25.75;;
25231;SDS011;13176;51.140;6.290;2024-01-30T03:55:36;28.73;;;26.83;;
25231;SDS011;13176;51.140;6.290;2024-01-30T03:58:02;28.33;;;26.23;;
25231;SDS011;13176;51.140;6.290;2024-01-30T04:00:29;26.95;;;25.15;;
25231;SDS011;13176;51.140;6.290;2024-01-30T04:02:56;26.80;;;25.08;;
25231;SDS011;13176;51.140;6.290;2024-01-30T04:05:22;26.77;;;24.88;;
25231;SDS011;13176;51.140;6.290;2024-01-30T04:07:51;27.90;;;26.00;;
25231;SDS011;13176;51.140;6.290;2024-01-30T04:10:18;27.92;;;26.10;;
25231;SDS011;13176;51.140;6.290;2024-01-30T04:12:47;27.02;;;25.15;;
25231;SDS011;13176;51.140;6.290;2024-01-30T04:15:16;26.33;;;24.33;;
25231;SDS011;13176;51.140;6.290;2024-01-30T04:17:43;27.58;;;25.55;;
25231;SDS011;13176;51.140;6.290;2024-01-30T04:20:14;27.63;;;25.73;;
25231;SDS011;13176;51.140;6.290;2024-01-30T04:22:44;28.92;;;27.10;;
25231;SDS011;13176;51.140;6.290;2024-01-30T04:25:12;29.33;;;27.25;;
25231;SDS011;13176;51.140;6.290;2024-01-30T04:27:39;26.92;;;24.92;;
25231;SDS011;13176;51.140;6.290;2024-01-30T04:30:06;28.80;;;26.90;;
25231;SDS011;13176;51.140;6.290;2024-01-30T04:32:33;30.55;;;28.08;;
25231;SDS011;13176;51.140;6.290;2024-01-30T04:34:59;30.05;;;27.95;;
25231;SDS011;13176;51.140;6.290;2024-01-30T04:37:26;30.70;;;28.25;;
25231;SDS011;13176;51.140;6.290;2024-01-30T04:39:56;27.80;;;25.98;;
25231;SDS011;13176;51.140;6.290;2024-01-30T04:42:22;30.15;;;27.95;;
25231;SDS011;13176;51.140;6.290;2024-01-30T04:44:49;29.23;;;27.13;;
25231;SDS011;13176;51.140;6.290;2024-01-30T04:47:16;27.23;;;25.23;;
25231;SDS011;13176;51.140;6.290;2024-01-30T04:49:42;28.05;;;26.10;;
25231;SDS011;13176;51.140;6.290;2024-01-30T04:52:09;30.83;;;28.20;;
25231;SDS011;13176;51.140;6.290;2024-01-30T04:54:36;31.30;;;29.20;;
25231;SDS011;13176;51.140;6.290;2024-01-30T04:57:02;29.08;;;26.88;;
25231;SDS011;13176;51.140;6.290;2024-01-30T04:59:29;30.70;;;28.60;;
25231;SDS011;13176;51.140;6.290;2024-01-30T05:01:55;29.90;;;27.90;;
25231;SDS011;13176;51.140;6.290;2024-01-30T05:04:24;29.80;;;27.75;;
25231;SDS011;13176;51.140;6.290;2024-01-30T05:06:50;28.88;;;26.88;;
25231;SDS011;13176;51.140;6.290;2024-01-30T05:09:17;28.98;;;26.67;;
25231;SDS011;13176;51.140;6.290;2024-01-30T05:11:45;28.55;;;26.67;;
25231;SDS011;13176;51.140;6.290;2024-01-30T05:14:13;29.13;;;27.13;;
25231;SDS011;13176;51.140;6.290;2024-01-30T05:16:41;28.08;;;26.15;;
25231;SDS011;13176;51.140;6.290;2024-01-30T05:19:09;27.83;;;25.83;;
25231;SDS011;13176;51.140;6.290;2024-01-30T05:21:35;26.98;;;25.08;;
25231;SDS011;13176;51.140;6.290;2024-01-30T05:24:02;29.58;;;27.38;;
25231;SDS011;13176;51.140;6.290;2024-01-30T05:26:29;28.88;;;26.42;;
25231;SDS011;13176;51.140;6.290;2024-01-30T05:29:04;28.45;;;26.05;;
25231;SDS011;13176;51.140;6.290;2024-01-30T05:31:31;27.67;;;25.83;;
25231;SDS011;13176;51.140;6.290;2024-01-30T05:33:58;27.40;;;25.17;;
25231;SDS011;13176;51.140;6.290;2024-01-30T05:36:30;26.58;;;24.60;;
25231;SDS011;13176;51.140;6.290;2024-01-30T05:38:57;27.75;;;25.67;;
25231;SDS011;13176;51.140;6.290;2024-01-30T05:41:24;27.50;;;25.73;;
25231;SDS011;13176;51.140;6.290;2024-01-30T05:43:50;30.42;;;28.17;;
25231;SDS011;13176;51.140;6.290;2024-01-30T05:46:24;28.35;;;26.35;;
25231;SDS011;13176;51.140;6.290;2024-01-30T05:48:54;28.15;;;26.33;;
25231;SDS011;13176;51.140;6.290;2024-01-30T05:51:20;28.50;;;26.52;;
25231;SDS011;13176;51.140;6.290;2024-01-30T05:53:50;29.65;;;27.67;;
25231;SDS011;13176;51.140;6.290;2024-01-30T05:56:21;28.42;;;26.35;;
25231;SDS011;13176;51.140;6.290;2024-01-30T05:58:48;27.42;;;25.65;;
25231;SDS011;13176;51.140;6.290;2024-01-30T06:01:20;29.40;;;27.50;;
25231;SDS011;13176;51.140;6.290;2024-01-30T06:03:56;27.50;;;25.60;;
25231;SDS011;13176;51.140;6.290;2024-01-30T06:06:23;28.35;;;26.58;;
25231;SDS011;13176;51.140;6.290;2024-01-30T06:08:49;28.50;;;26.38;;
25231;SDS011;13176;51.140;6.290;2024-01-30T06:11:19;28.80;;;26.67;;
25231;SDS011;13176;51.140;6.290;2024-01-30T06:13:46;30.60;;;28.40;;
25231;SDS011;13176;51.140;6.290;2024-01-30T06:16:30;29.52;;;27.52;;
25231;SDS011;13176;51.140;6.290;2024-01-30T06:18:59;31.08;;;28.67;;
25231;SDS011;13176;51.140;6.290;2024-01-30T06:21:26;29.92;;;27.77;;
25231;SDS011;13176;51.140;6.290;2024-01-30T06:23:53;28.88;;;26.92;;
25231;SDS011;13176;51.140;6.290;2024-01-30T06:26:20;28.95;;;27.02;;
25231;SDS011;13176;51.140;6.290;2024-01-30T06:28:47;27.05;;;25.33;;
25231;SDS011;13176;51.140;6.290;2024-01-30T06:31:14;27.90;;;26.00;;
25231;SDS011;13176;51.140;6.290;2024-01-30T06:33:40;28.30;;;26.30;;
25231;SDS011;13176;51.140;6.290;2024-01-30T06:36:08;28.08;;;26.17;;
25231;SDS011;13176;51.140;6.290;2024-01-30T06:38:35;28.40;;;26.48;;
25231;SDS011;13176;51.140;6.290;2024-01-30T06:41:01;27.00;;;25.30;;
25231;SDS011;13176;51.140;6.290;2024-01-30T06:43:28;28.35;;;26.48;;
25231;SDS011;13176;51.140;6.290;2024-01-30T06:45:55;26.27;;;24.55;;
25231;SDS011;13176;51.140;6.290;2024-01-30T06:48:22;28.85;;;26.80;;
25231;SDS011;13176;51.140;6.290;2024-01-30T06:50:48;26.50;;;24.42;;
25231;SDS011;13176;51.140;6.290;2024-01-30T06:53:15;28.20;;;25.98;;
25231;SDS011;13176;51.140;6.290;2024-01-30T06:55:42;28.73;;;26.83;;
25231;SDS011;13176;51.140;6.290;2024-01-30T06:58:09;27.23;;;25.45;;
25231;SDS011;13176;51.140;6.290;2024-01-30T07:00:35;27.23;;;25.33;;
25231;SDS011;13176;51.140;6.290;2024-01-30T07:03:02;28.05;;;26.27;;
25231;SDS011;13176;51.140;6.290;2024-01-30T07:05:29;27.73;;;26.00;;
25231;SDS011;13176;51.140;6.290;2024-01-30T07:07:58;27.20;;;25.33;;
25231;SDS011;13176;51.140;6.290;2024-01-30T07:10:25;29.58;;;27.50;;
25231;SDS011;13176;51.140;6.290;2024-01-30T07:12:52;29.13;;;27.27;;
25231;SDS011;13176;51.140;6.290;2024-01-30T07:15:19;28.55;;;26.60;;
25231;SDS011;13176;51.140;6.290;2024-01-30T07:17:46;29.17;;;27.20;;
25231;SDS011;13176;51.140;6.290;2024-01-30T07:20:13;28.73;;;26.42;;
25231;SDS011;13176;51.140;6.290;2024-01-30T07:22:43;27.25;;;25.15;;
25231;SDS011;13176;51.140;6.290;2024-01-30T07:25:10;26.80;;;24.80;;
25231;SDS011;13176;51.140;6.290;2024-01-30T07:27:37;28.08;;;26.17;;
25231;SDS011;13176;51.140;6.290;2024-01-30T07:30:04;27.65;;;25.65;;
25231;SDS011;13176;51.140;6.290;2024-01-30T07:32:31;26.75;;;24.85;;
25231;SDS011;13176;51.140;6.290;2024-01-30T07:34:58;26.23;;;24.63;;
25231;SDS011;13176;51.140;6.290;2024-01-30T07:37:34;27.88;;;25.55;;
25231;SDS011;13176;51.140;6.290;2024-01-30T07:40:01;28.00;;;25.98;;
25231;SDS011;13176;51.140;6.290;2024-01-30T07:42:28;28.75;;;26.90;;
25231;SDS011;13176;51.140;6.290;2024-01-30T07:44:54;28.17;;;26.35;;
25231;SDS011;13176;51.140;6.290;2024-01-30T07:47:21;27.58;;;25.80;;
25231;SDS011;13176;51.140;6.290;2024-01-30T07:49:48;28.27;;;26.30;;
25231;SDS011;13176;51.140;6.290;2024-01-30T07:52:17;25.40;;;23.70;;
25231;SDS011;13176;51.140;6.290;2024-01-30T07:54:44;28.42;;;26.60;;
25231;SDS011;13176;51.140;6.290;2024-01-30T07:57:11;27.63;;;25.73;;
25231;SDS011;13176;51.140;6.290;2024-01-30T07:59:37;27.05;;;25.10;;
25231;SDS011;13176;51.140;6.290;2024-01-30T08:02:04;27.95;;;26.17;;
25231;SDS011;13176;51.140;6.290;2024-01-30T08:04:38;28.25;;;26.27;;
25231;SDS011;13176;51.140;6.290;2024-01-30T08:07:05;28.38;;;26.27;;
25231;SDS011;13176;51.140;6.290;2024-01-30T08:09:33;30.17;;;28.15;;
25231;SDS011;13176;51.140;6.290;2024-01-30T08:12:00;28.50;;;26.77;;
25231;SDS011;13176;51.140;6.290;2024-01-30T08:14:26;27.70;;;25.65;;
25231;SDS011;13176;51.140;6.290;2024-01-30T08:16:56;27.15;;;25.27;;
25231;SDS011;13176;51.140;6.290;2024-01-30T08:19:23;27.08;;;25.30;;
25231;SDS011;13176;51.140;6.290;2024-01-30T08:21:49;29.20;;;26.70;;
25231;SDS011;13176;51.140;6.290;2024-01-30T08:24:16;29.65;;;26.95;;
25231;SDS011;13176;51.140;6.290;2024-01-30T08:26:44;27.33;;;24.92;;
25231;SDS011;13176;51.140;6.290;2024-01-30T08:29:11;26.45;;;24.65;;
25231;SDS011;13176;51.140;6.290;2024-01-30T08:31:38;27.52;;;25.63;;
25231;SDS011;13176;51.140;6.290;2024-01-30T08:34:08;27.50;;;25.50;;
25231;SDS011;13176;51.140;6.290;2024-01-30T08:36:34;26.95;;;25.25;;
25231;SDS011;13176;51.140;6.290;2024-01-30T08:39:04;27.73;;;25.63;;
25231;SDS011;13176;51.140;6.290;2024-01-30T08:41:32;26.58;;;24.70;;
25231;SDS011;13176;51.140;6.290;2024-01-30T08:43:58;29.80;;;27.63;;
25231;SDS011;13176;51.140;6.290;2024-01-30T08:46:25;28.52;;;26.50;;
25231;SDS011;13176;51.140;6.290;2024-01-30T08:48:51;29.17;;;27.27;;
25231;SDS011;13176;51.140;6.290;2024-01-30T08:51:18;29.48;;;27.52;;
25231;SDS011;13176;51.140;6.290;2024-01-30T08:53:45;29.60;;;26.98;;
25231;SDS011;13176;51.140;6.290;2024-01-30T08:56:11;30.58;;;28.52;;
25231;SDS011;13176;51.140;6.290;2024-01-30T08:58:38;31.90;;;29.85;;
25231;SDS011;13176;51.140;6.290;2024-01-30T09:01:04;32.53;;;30.65;;
25231;SDS011;13176;51.140;6.290;2024-01-30T09:03:32;30.85;;;28.73;;
25231;SDS011;13176;51.140;6.290;2024-01-30T09:05:59;32.55;;;30.20;;
25231;SDS011;13176;51.140;6.290;2024-01-30T09:08:25;30.23;;;28.25;;
25231;SDS011;13176;51.140;6.290;2024-01-30T09:10:52;29.67;;;27.33;;
25231;SDS011;13176;51.140;6.290;2024-01-30T09:13:19;32.80;;;30.63;;
25231;SDS011;13176;51.140;6.290;2024-01-30T09:15:50;29.13;;;27.30;;
25231;SDS011;13176;51.140;6.290;2024-01-30T09:18:16;30.17;;;28.00;;
25231;SDS011;13176;51.140;6.290;2024-01-30T09:20:44;33.53;;;31.00;;
25231;SDS011;13176;51.140;6.290;2024-01-30T09:23:16;33.33;;;30.60;;
25231;SDS011;13176;51.140;6.290;2024-01-30T09:25:45;34.83;;;32.53;;
25231;SDS011;13176;51.140;6.290;2024-01-30T09:28:11;34.95;;;32.55;;
25231;SDS011;13176;51.140;6.290;2024-01-30T09:30:38;34.75;;;32.28;;
25231;SDS011;13176;51.140;6.290;2024-01-30T09:33:05;36.65;;;34.05;;
25231;SDS011;13176;51.140;6.290;2024-01-30T09:35:33;36.78;;;34.17;;
25231;SDS011;13176;51.140;6.290;2024-01-30T09:37:59;34.85;;;32.25;;
25231;SDS011;13176;51.140;6.290;2024-01-30T09:40:29;35.78;;;32.92;;
25231;SDS011;13176;51.140;6.290;2024-01-30T09:42:55;35.03;;;32.83;;
25231;SDS011;13176;51.140;6.290;2024-01-30T09:45:24;35.58;;;32.67;;
25231;SDS011;13176;51.140;6.290;2024-01-30T09:47:51;35.33;;;32.88;;
25231;SDS011;13176;51.140;6.290;2024-01-30T09:50:19;34.70;;;31.98;;
25231;SDS011;13176;51.140;6.290;2024-01-30T09:52:47;34.97;;;32.53;;
25231;SDS011;13176;51.140;6.290;2024-01-30T09:55:13;35.50;;;33.30;;
25231;SDS011;13176;51.140;6.290;2024-01-30T09:57:41;37.65;;;34.78;;
25231;SDS011;13176;51.140;6.290;2024-01-30T10:00:08;40.17;;;37.33;;
25231;SDS011;13176;51.140;6.290;2024-01-30T10:02:38;38.78;;;36.42;;
25231;SDS011;13176;51.140;6.290;2024-01-30T10:05:20;35.03;;;32.88;;
25231;SDS011;13176;51.140;6.290;2024-01-30T10:07:56;33.50;;;31.15;;
25231;SDS011;13176;51.140;6.290;2024-01-30T10:10:24;33.65;;;31.33;;
25231;SDS011;13176;51.140;6.290;2024-01-30T10:12:51;32.42;;;30.38;;
25231;SDS011;13176;51.140;6.290;2024-01-30T10:15:17;31.05;;;29.00;;
25231;SDS011;13176;51.140;6.290;2024-01-30T10:17:48;33.05;;;30.45;;
25231;SDS011;13176;51.140;6.290;2024-01-30T10:20:15;30.00;;;27.80;;
25231;SDS011;13176;51.140;6.290;2024-01-30T10:22:44;28.90;;;26.77;;
25231;SDS011;13176;51.140;6.290;2024-01-30T10:25:11;27.83;;;25.98;;
25231;SDS011;13176;51.140;6.290;2024-01-30T10:27:41;27.95;;;25.92;;
25231;SDS011;13176;51.140;6.290;2024-01-30T10:30:08;25.15;;;23.40;;
25231;SDS011;13176;51.140;6.290;2024-01-30T10:32:35;25.25;;;23.40;;
25231;SDS011;13176;51.140;6.290;2024-01-30T10:35:02;26.88;;;25.08;;
25231;SDS011;13176;51.140;6.290;2024-01-30T10:37:29;30.42;;;28.38;;
25231;SDS011;13176;51.140;6.290;2024-01-30T10:40:00;29.42;;;27.52;;
25231;SDS011;13176;51.140;6.290;2024-01-30T10:42:31;31.13;;;28.88;;
25231;SDS011;13176;51.140;6.290;2024-01-30T10:45:11;33.92;;;31.70;;
25231;SDS011;13176;51.140;6.290;2024-01-30T10:47:53;33.75;;;31.25;;
25231;SDS011;13176;51.140;6.290;2024-01-30T10:50:27;35.65;;;32.92;;
25231;SDS011;13176;51.140;6.290;2024-01-30T10:52:54;35.55;;;32.95;;
25231;SDS011;13176;51.140;6.290;2024-01-30T10:55:29;35.33;;;32.92;;
25231;SDS011;13176;51.140;6.290;2024-01-30T10:57:58;33.42;;;31.30;;
25231;SDS011;13176;51.140;6.290;2024-01-30T11:00:28;31.02;;;28.83;;
25231;SDS011;13176;51.140;6.290;2024-01-30T11:02:55;40.75;;;37.92;;
25231;SDS011;13176;51.140;6.290;2024-01-30T11:05:27;39.08;;;36.20;;
25231;SDS011;13176;51.140;6.290;2024-01-30T11:07:59;35.10;;;32.78;;
25231;SDS011;13176;51.140;6.290;2024-01-30T11:10:29;33.35;;;31.02;;
25231;SDS011;13176;51.140;6.290;2024-01-30T11:12:57;34.28;;;31.98;;
25231;SDS011;13176;51.140;6.290;2024-01-30T11:15:27;36.35;;;33.83;;
25231;SDS011;13176;51.140;6.290;2024-01-30T11:17:57;33.25;;;31.15;;
25231;SDS011;13176;51.140;6.290;2024-01-30T11:20:32;35.15;;;32.83;;
25231;SDS011;13176;51.140;6.290;2024-01-30T11:23:02;38.05;;;35.13;;
25231;SDS011;13176;51.140;6.290;2024-01-30T11:25:34;34.88;;;32.47;;
25231;SDS011;13176;51.140;6.290;2024-01-30T11:28:02;36.35;;;33.83;;
25231;SDS011;13176;51.140;6.290;2024-01-30T11:30:34;35.80;;;33.10;;
25231;SDS011;13176;51.140;6.290;2024-01-30T11:35:29;38.75;;;36.05;;
25231;SDS011;13176;51.140;6.290;2024-01-30T11:38:03;33.70;;;31.15;;
25231;SDS011;13176;51.140;6.290;2024-01-30T11:40:40;36.37;;;33.57;;
25231;SDS011;13176;51.140;6.290;2024-01-30T11:43:08;37.20;;;34.72;;
25231;SDS011;13176;51.140;6.290;2024-01-30T11:45:38;34.03;;;31.83;;
25231;SDS011;13176;51.140;6.290;2024-01-30T11:48:08;37.22;;;34.72;;
25231;SDS011;13176;51.140;6.290;2024-01-30T11:50:38;38.00;;;35.58;;
25231;SDS011;13176;51.140;6.290;2024-01-30T11:53:06;40.53;;;37.58;;
25231;SDS011;13176;51.140;6.290;2024-01-30T11:55:34;38.88;;;36.53;;
25231;SDS011;13176;51.140;6.290;2024-01-30T11:58:05;33.75;;;31.55;;
25231;SDS011;13176;51.140;6.290;2024-01-30T12:00:32;37.40;;;34.78;;
25231;SDS011;13176;51.140;6.290;2024-01-30T12:03:01;39.38;;;36.63;;
25231;SDS011;13176;51.140;6.290;2024-01-30T12:05:30;38.20;;;35.28;;
25231;SDS011;13176;51.140;6.290;2024-01-30T12:07:57;39.58;;;36.78;;
25231;SDS011;13176;51.140;6.290;2024-01-30T12:10:28;38.15;;;35.15;;
25231;SDS011;13176;51.140;6.290;2024-01-30T12:12:55;36.85;;;34.15;;
25231;SDS011;13176;51.140;6.290;2024-01-30T12:15:34;39.72;;;37.03;;
25231;SDS011;13176;51.140;6.290;2024-01-30T12:18:05;40.22;;;37.53;;
25231;SDS011;13176;51.140;6.290;2024-01-30T12:20:34;42.28;;;39.00;;
25231;SDS011;13176;51.140;6.290;2024-01-30T12:23:03;38.63;;;36.05;;
25231;SDS011;13176;51.140;6.290;2024-01-30T12:25:33;38.53;;;36.03;;
25231;SDS011;13176;51.140;6.290;2024-01-30T12:28:00;39.65;;;36.85;;
25231;SDS011;13176;51.140;6.290;2024-01-30T12:30:27;40.10;;;37.60;;
25231;SDS011;13176;51.140;6.290;2024-01-30T12:33:05;38.67;;;35.97;;
25231;SDS011;13176;51.140;6.290;2024-01-30T12:35:35;39.42;;;36.85;;
25231;SDS011;13176;51.140;6.290;2024-01-30T12:38:17;37.67;;;35.08;;
25231;SDS011;13176;51.140;6.290;2024-01-30T12:40:46;39.55;;;36.75;;
25231;SDS011;13176;51.140;6.290;2024-01-30T12:43:13;38.58;;;36.08;;
25231;SDS011;13176;51.140;6.290;2024-01-30T12:45:56;39.23;;;36.57;;
25231;SDS011;13176;51.140;6.290;2024-01-30T12:48:25;41.85;;;39.13;;
25231;SDS011;13176;51.140;6.290;2024-01-30T12:51:13;40.08;;;37.35;;
25231;SDS011;13176;51.140;6.290;2024-01-30T12:53:43;40.25;;;37.22;;
25231;SDS011;13176;51.140;6.290;2024-01-30T12:56:11;42.00;;;39.13;;
25231;SDS011;13176;51.140;6.290;2024-01-30T12:58:45;42.10;;;39.47;;
25231;SDS011;13176;51.140;6.290;2024-01-30T13:01:18;40.58;;;37.92;;
25231;SDS011;13176;51.140;6.290;2024-01-30T13:03:45;39.75;;;37.38;;
25231;SDS011;13176;51.140;6.290;2024-01-30T13:06:12;39.38;;;36.25;;
25231;SDS011;13176;51.140;6.290;2024-01-30T13:08:39;43.13;;;39.88;;
25231;SDS011;13176;51.140;6.290;2024-01-30T13:11:06;40.33;;;37.53;;
25231;SDS011;13176;51.140;6.290;2024-01-30T13:13:42;40.22;;;37.53;;
25231;SDS011;13176;51.140;6.290;2024-01-30T13:16:09;39.70;;;37.10;;
25231;SDS011;13176;51.140;6.290;2024-01-30T13:18:45;40.58;;;37.97;;
25231;SDS011;13176;51.140;6.290;2024-01-30T13:21:14;39.30;;;36.67;;
25231;SDS011;13176;51.140;6.290;2024-01-30T13:23:46;40.55;;;37.72;;
25231;SDS011;13176;51.140;6.290;2024-01-30T13:26:13;40.10;;;37.30;;
25231;SDS011;13176;51.140;6.290;2024-01-30T13:28:42;41.05;;;38.15;;
25231;SDS011;13176;51.140;6.290;2024-01-30T13:31:13;40.97;;;38.00;;
25231;SDS011;13176;51.140;6.290;2024-01-30T13:33:43;40.10;;;37.55;;
25231;SDS011;13176;51.140;6.290;2024-01-30T13:36:10;40.67;;;37.72;;
25231;SDS011;13176;51.140;6.290;2024-01-30T13:38:41;42.92;;;39.78;;
25231;SDS011;13176;51.140;6.290;2024-01-30T13:41:12;40.20;;;37.40;;
25231;SDS011;13176;51.140;6.290;2024-01-30T13:43:39;37.40;;;34.97;;
25231;SDS011;13176;51.140;6.290;2024-01-30T13:46:06;40.72;;;37.65;;
25231;SDS011;13176;51.140;6.290;2024-01-30T13:48:45;39.13;;;36.22;;
25231;SDS011;13176;51.140;6.290;2024-01-30T13:51:14;35.60;;;33.25;;
25231;SDS011;13176;51.140;6.290;2024-01-30T13:53:43;36.17;;;33.65;;
25231;SDS011;13176;51.140;6.290;2024-01-30T13:56:10;34.50;;;32.15;;
25231;SDS011;13176;51.140;6.290;2024-01-30T13:58:49;33.83;;;31.45;;
25231;SDS011;13176;51.140;6.290;2024-01-30T14:01:16;32.30;;;30.20;;
25231;SDS011;13176;51.140;6.290;2024-01-30T14:03:44;33.17;;;30.63;;
25231;SDS011;13176;51.140;6.290;2024-01-30T14:06:30;33.80;;;31.70;;
25231;SDS011;13176;51.140;6.290;2024-01-30T14:09:21;29.85;;;28.00;;
25231;SDS011;13176;51.140;6.290;2024-01-30T14:11:48;32.35;;;30.05;;
25231;SDS011;13176;51.140;6.290;2024-01-30T14:14:15;32.55;;;30.15;;
25231;SDS011;13176;51.140;6.290;2024-01-30T14:16:44;31.65;;;29.13;;
25231;SDS011;13176;51.140;6.290;2024-01-30T14:19:11;28.92;;;27.02;;
25231;SDS011;13176;51.140;6.290;2024-01-30T14:21:37;32.58;;;30.38;;
25231;SDS011;13176;51.140;6.290;2024-01-30T14:24:06;31.05;;;28.77;;
25231;SDS011;13176;51.140;6.290;2024-01-30T14:26:35;32.40;;;29.88;;
25231;SDS011;13176;51.140;6.290;2024-01-30T14:29:05;34.22;;;31.92;;
25231;SDS011;13176;51.140;6.290;2024-01-30T14:31:32;29.90;;;28.05;;